Time;durP1;ratioP1;P1;durP2;ratioP2;P2;SDS_P1;SDS_P2;PMS_P1;PMS_P2;Temp;Humidity;BMP_temperature;BMP_pressure;BME280_temperature;BME280_humidity;BME280_pressure;Samples;Min_cycle;Max_cycle;Signal;HPM_P1;HPM_P2
2022/09/30 00:00:21;;;;;;;6.60;3.90;;;6.40;99.90;;;;;;5032738;28;20218;-55
2022/09/30 00:02:48;;;;;;;6.97;4.67;;;6.40;99.90;;;;;;5032751;28;20206;-57
2022/09/30 00:05:15;;;;;;;6.70;3.67;;;6.40;99.90;;;;;;5032701;28;20622;-50
2022/09/30 00:07:41;;;;;;;5.13;3.77;;;6.40;99.90;;;;;;5032440;28;20732;-52
2022/09/30 00:10:09;;;;;;;4.93;3.50;;;6.30;99.90;;;;;;5032657;28;20205;-56
2022/09/30 00:12:35;;;;;;;7.23;3.77;;;6.30;99.90;;;;;;5032505;28;20292;-56
2022/09/30 00:15:04;;;;;;;5.20;3.83;;;6.30;99.90;;;;;;5032425;28;20253;-55
2022/09/30 00:17:31;;;;;;;8.50;3.83;;;6.30;99.90;;;;;;5032118;28;20644;-56
2022/09/30 00:19:57;;;;;;;6.70;4.13;;;6.30;99.90;;;;;;5032663;28;20206;-56
2022/09/30 00:22:24;;;;;;;7.60;4.23;;;6.10;99.90;;;;;;5032417;28;20731;-57
2022/09/30 00:24:50;;;;;;;8.03;4.33;;;6.20;99.90;;;;;;5032319;28;20203;-56
2022/09/30 00:27:18;;;;;;;4.60;4.00;;;6.10;99.90;;;;;;5032187;28;20218;-58
2022/09/30 00:29:45;;;;;;;7.07;3.60;;;6.20;99.90;;;;;;5032164;28;20252;-56
2022/09/30 00:32:13;;;;;;;7.03;4.13;;;6.20;99.90;;;;;;5032227;28;20214;-55
2022/09/30 00:34:40;;;;;;;6.83;4.17;;;6.10;99.90;;;;;;5032482;28;20264;-54
2022/09/30 00:37:07;;;;;;;8.47;3.60;;;6.20;99.90;;;;;;5031813;28;20234;-58
2022/09/30 00:39:34;;;;;;;6.17;4.00;;;6.20;99.90;;;;;;5032379;28;20290;-49
2022/09/30 00:42:05;;;;;;;7.33;3.70;;;6.20;99.90;;;;;;5032226;28;20202;-50
2022/09/30 00:44:49;;;;;;;5.87;4.43;;;6.20;99.90;;;;;;5032112;28;20233;-50
2022/09/30 00:47:38;;;;;;;5.40;3.77;;;6.20;99.90;;;;;;5031681;28;20258;-52
2022/09/30 00:50:16;;;;;;;7.60;4.00;;;6.20;99.90;;;;;;5032124;28;20296;-51
2022/09/30 00:52:45;;;;;;;9.63;4.13;;;6.10;99.90;;;;;;5032535;28;20645;-50
2022/09/30 00:55:24;;;;;;;5.03;4.10;;;6.10;99.90;;;;;;5032895;28;20202;-53
2022/09/30 00:57:51;;;;;;;6.80;4.23;;;6.00;99.90;;;;;;5031970;28;20675;-54
2022/09/30 01:00:18;;;;;;;6.63;4.40;;;6.00;99.90;;;;;;5032061;28;20632;-50
2022/09/30 01:02:48;;;;;;;6.90;4.67;;;6.10;99.90;;;;;;5031952;28;20202;-55
2022/09/30 01:05:15;;;;;;;11.43;4.27;;;6.00;99.90;;;;;;5031690;28;20669;-55
2022/09/30 01:07:42;;;;;;;9.17;4.80;;;6.10;99.90;;;;;;5031467;28;20226;-48
2022/09/30 01:10:09;;;;;;;7.13;4.23;;;6.00;99.90;;;;;;5032039;28;20256;-52
2022/09/30 01:12:36;;;;;;;8.67;4.63;;;6.00;99.90;;;;;;5031847;28;20751;-52
2022/09/30 01:15:03;;;;;;;8.03;4.57;;;5.90;99.90;;;;;;5031873;28;20210;-52
2022/09/30 01:17:40;;;;;;;6.60;4.13;;;5.90;99.90;;;;;;5031253;28;20230;-53
2022/09/30 01:20:36;;;;;;;7.20;4.23;;;5.90;99.90;;;;;;5031805;28;20272;-53
2022/09/30 01:23:23;;;;;;;8.97;4.97;;;6.00;99.90;;;;;;5026735;28;20214;-55
2022/09/30 01:26:32;;;;;;;6.77;4.40;;;5.90;99.90;;;;;;5031513;28;20613;-51
2022/09/30 01:29:47;;;;;;;10.77;5.53;;;5.90;99.90;;;;;;5031294;28;20804;-56
2022/09/30 01:32:21;;;;;;;8.97;5.13;;;5.90;99.90;;;;;;5031575;28;20213;-57
2022/09/30 01:34:58;;;;;;;9.67;5.10;;;5.90;99.90;;;;;;5031601;28;20216;-58
2022/09/30 01:37:38;;;;;;;8.43;5.73;;;6.00;99.90;;;;;;5031404;28;20313;-53
2022/09/30 01:40:12;;;;;;;17.00;6.20;;;5.90;99.90;;;;;;5031503;28;20202;-56
2022/09/30 01:42:51;;;;;;;11.73;7.77;;;6.00;99.90;;;;;;5031226;28;20202;-56
2022/09/30 01:45:25;;;;;;;8.83;6.70;;;6.00;99.90;;;;;;5031315;28;20693;-58
2022/09/30 01:47:59;;;;;;;10.10;6.80;;;6.10;99.90;;;;;;5031136;28;20704;-53
2022/09/30 01:50:36;;;;;;;11.17;7.43;;;6.10;99.90;;;;;;5031636;28;20206;-58
2022/09/30 01:53:08;;;;;;;16.03;8.50;;;6.20;99.90;;;;;;5031409;28;20206;-53
2022/09/30 01:55:40;;;;;;;14.60;9.43;;;6.30;99.90;;;;;;5031272;28;20210;-57
2022/09/30 01:58:12;;;;;;;14.10;8.70;;;6.30;99.90;;;;;;5032352;28;20276;-58
2022/09/30 02:00:43;;;;;;;14.33;9.03;;;6.30;99.90;;;;;;5034316;28;20190;-58
2022/09/30 02:03:17;;;;;;;14.37;8.97;;;6.40;99.90;;;;;;5032817;28;20206;-56
2022/09/30 02:05:52;;;;;;;15.90;9.27;;;6.40;99.90;;;;;;5031633;28;20210;-53
2022/09/30 02:08:22;;;;;;;12.63;9.33;;;6.40;99.90;;;;;;5033099;28;20229;-54
2022/09/30 02:10:56;;;;;;;15.90;9.23;;;6.50;99.90;;;;;;5035287;28;20210;-55
2022/09/30 02:13:29;;;;;;;16.87;8.93;;;6.50;99.90;;;;;;5034796;28;20257;-56
2022/09/30 02:16:00;;;;;;;13.70;9.20;;;6.50;99.90;;;;;;5034633;28;20214;-52
2022/09/30 02:18:31;;;;;;;13.37;8.80;;;6.50;99.90;;;;;;5034472;28;20617;-56
2022/09/30 02:21:01;;;;;;;13.17;8.00;;;6.50;99.90;;;;;;5034706;28;20743;-55
2022/09/30 02:23:31;;;;;;;12.27;7.00;;;6.50;99.90;;;;;;5034741;28;20213;-56
2022/09/30 02:26:04;;;;;;;12.67;8.17;;;6.40;99.90;;;;;;5034412;28;20202;-56
2022/09/30 02:28:32;;;;;;;15.03;10.20;;;6.40;99.90;;;;;;5034472;28;20310;-56
2022/09/30 02:31:02;;;;;;;15.17;9.47;;;6.50;99.90;;;;;;5034439;28;20233;-56
2022/09/30 02:33:35;;;;;;;13.03;9.37;;;6.50;99.90;;;;;;5034370;28;20242;-51
2022/09/30 02:36:07;;;;;;;15.10;8.80;;;6.50;99.90;;;;;;5034313;28;20202;-56
2022/09/30 02:38:39;;;;;;;11.10;7.33;;;6.50;99.90;;;;;;5034012;28;20284;-55
2022/09/30 02:41:10;;;;;;;9.97;7.40;;;6.50;99.90;;;;;;5034218;28;20680;-55
2022/09/30 02:43:40;;;;;;;10.23;7.63;;;6.50;99.90;;;;;;5034471;28;20244;-58
2022/09/30 02:46:15;;;;;;;12.07;7.57;;;6.50;99.90;;;;;;5033909;28;20218;-54
2022/09/30 02:48:49;;;;;;;10.10;7.13;;;6.50;99.90;;;;;;5034215;28;20627;-56
2022/09/30 02:51:19;;;;;;;9.17;6.50;;;6.50;99.90;;;;;;5034403;28;20202;-56
2022/09/30 02:53:53;;;;;;;9.00;6.30;;;6.40;99.90;;;;;;5033958;28;20233;-56
2022/09/30 02:56:24;;;;;;;10.20;6.90;;;6.40;99.90;;;;;;5033779;28;20738;-54
2022/09/30 02:58:52;;;;;;;11.27;7.00;;;6.40;99.90;;;;;;5034064;28;20238;-54
2022/09/30 03:01:19;;;;;;;11.13;8.00;;;6.30;99.90;;;;;;5034133;28;20222;-55
2022/09/30 03:03:51;;;;;;;13.37;7.97;;;6.30;99.90;;;;;;5033855;28;20735;-58
2022/09/30 03:06:18;;;;;;;15.67;9.07;;;6.30;99.90;;;;;;5033689;28;20206;-53
2022/09/30 03:08:45;;;;;;;18.53;8.93;;;6.30;99.90;;;;;;5033944;28;20226;-54
2022/09/30 03:11:16;;;;;;;12.87;9.20;;;6.30;99.90;;;;;;5033642;28;20214;-56
2022/09/30 03:14:23;;;;;;;15.13;9.40;;;6.30;99.90;;;;;;5033837;28;20210;-56
2022/09/30 03:17:11;;;;;;;12.07;8.70;;;6.40;99.90;;;;;;5033263;28;20244;-56
2022/09/30 03:20:04;;;;;;;16.93;9.93;;;6.40;99.90;;;;;;5032758;28;20206;-52
2022/09/30 03:22:51;;;;;;;16.70;9.27;;;6.40;99.90;;;;;;5033504;28;20206;-55
2022/09/30 03:25:30;;;;;;;15.03;9.47;;;6.40;99.90;;;;;;5033482;28;20280;-55
2022/09/30 03:28:07;;;;;;;16.77;10.17;;;6.40;99.90;;;;;;5033385;28;20272;-54
2022/09/30 03:30:38;;;;;;;15.87;10.27;;;6.40;99.90;;;;;;5033628;28;20240;-56
2022/09/30 03:33:10;;;;;;;15.77;10.33;;;6.50;99.90;;;;;;5033376;28;20210;-56
2022/09/30 03:35:49;;;;;;;16.27;11.10;;;6.50;99.90;;;;;;5033337;28;20206;-58
2022/09/30 03:38:25;;;;;;;15.37;9.73;;;6.60;99.90;;;;;;5032951;28;20256;-56
2022/09/30 03:41:00;;;;;;;16.03;10.53;;;6.60;99.90;;;;;;5033486;28;20202;-56
2022/09/30 03:43:32;;;;;;;18.00;11.23;;;6.50;99.90;;;;;;5033316;28;20240;-54
2022/09/30 03:46:05;;;;;;;16.20;11.43;;;6.60;99.90;;;;;;5032763;28;20276;-53
2022/09/30 03:48:33;;;;;;;16.23;11.70;;;6.60;99.90;;;;;;5032985;28;20705;-52
2022/09/30 03:51:03;;;;;;;15.03;10.93;;;6.60;99.90;;;;;;5033218;28;20284;-50
2022/09/30 03:53:30;;;;;;;16.00;10.60;;;6.60;99.90;;;;;;5032932;28;20272;-51
2022/09/30 03:55:56;;;;;;;14.33;9.93;;;6.60;99.90;;;;;;5032641;28;20751;-51
2022/09/30 03:58:23;;;;;;;13.17;9.47;;;6.50;99.90;;;;;;5032635;28;20234;-58
2022/09/30 04:00:52;;;;;;;12.53;8.47;;;6.50;99.90;;;;;;5032788;28;20202;-55
2022/09/30 04:03:20;;;;;;;14.17;9.50;;;6.40;99.90;;;;;;5032616;28;20669;-54
2022/09/30 04:05:47;;;;;;;12.43;9.20;;;6.40;99.90;;;;;;5032840;28;20202;-56
2022/09/30 04:08:15;;;;;;;18.93;10.53;;;6.30;99.90;;;;;;5032329;28;20226;-57
2022/09/30 04:10:42;;;;;;;15.97;10.03;;;6.30;99.90;;;;;;5032594;28;20210;-57
2022/09/30 04:13:09;;;;;;;16.60;11.17;;;6.30;99.90;;;;;;5032397;28;20815;-55
2022/09/30 04:15:37;;;;;;;18.83;11.20;;;6.30;99.90;;;;;;5032651;28;20616;-56
2022/09/30 04:18:04;;;;;;;18.57;11.47;;;6.30;99.90;;;;;;5032123;28;20233;-56
2022/09/30 04:20:32;;;;;;;19.23;11.10;;;6.40;99.90;;;;;;5032643;28;20206;-53
2022/09/30 04:22:59;;;;;;;16.63;11.17;;;6.40;99.90;;;;;;5032225;28;20681;-53
2022/09/30 04:25:28;;;;;;;20.00;10.97;;;6.40;99.90;;;;;;5032161;28;20206;-53
2022/09/30 04:27:56;;;;;;;17.57;10.33;;;6.30;99.90;;;;;;5032250;28;20300;-55
2022/09/30 04:30:22;;;;;;;18.53;10.20;;;6.30;99.90;;;;;;5032142;28;20253;-56
2022/09/30 04:32:49;;;;;;;15.20;11.30;;;6.30;99.90;;;;;;5032342;28;20210;-51
2022/09/30 04:35:15;;;;;;;19.57;11.93;;;6.30;99.90;;;;;;5032266;28;20206;-50
2022/09/30 04:37:43;;;;;;;18.93;11.43;;;6.30;99.90;;;;;;5031789;28;20272;-51
2022/09/30 04:40:10;;;;;;;22.97;11.83;;;6.20;99.90;;;;;;5031610;28;20210;-49
2022/09/30 04:42:39;;;;;;;17.67;12.70;;;6.20;99.90;;;;;;5032249;28;20206;-51
2022/09/30 04:45:07;;;;;;;20.33;12.93;;;6.30;99.90;;;;;;5031675;28;20685;-51
2022/09/30 04:47:34;;;;;;;20.53;13.80;;;6.30;99.90;;;;;;5029940;28;20766;-48
2022/09/30 04:50:01;;;;;;;24.80;14.67;;;6.30;99.90;;;;;;5031180;28;20558;-50
2022/09/30 04:52:27;;;;;;;20.00;14.70;;;6.40;99.90;;;;;;5031459;28;20213;-51
2022/09/30 04:54:54;;;;;;;20.10;14.07;;;6.40;99.90;;;;;;5031280;28;20202;-53
2022/09/30 04:57:21;;;;;;;21.80;13.83;;;6.40;99.90;;;;;;5031586;28;20225;-53
2022/09/30 04:59:49;;;;;;;20.87;13.87;;;6.40;99.90;;;;;;5031238;28;20214;-49
2022/09/30 05:02:16;;;;;;;18.03;13.00;;;6.40;99.90;;;;;;5031928;28;20206;-48
2022/09/30 05:04:43;;;;;;;17.20;12.10;;;6.40;99.90;;;;;;5031293;28;20206;-54
2022/09/30 05:07:09;;;;;;;18.57;12.27;;;6.40;99.90;;;;;;5031342;28;20226;-53
2022/09/30 05:09:36;;;;;;;15.90;12.17;;;6.40;99.90;;;;;;5031461;28;20279;-56
2022/09/30 05:12:03;;;;;;;16.83;12.37;;;6.30;99.90;;;;;;5032731;28;20594;-59
2022/09/30 05:14:32;;;;;;;19.43;12.20;;;6.30;99.90;;;;;;5032506;28;20206;-59
2022/09/30 05:17:00;;;;;;;18.63;12.30;;;6.30;99.90;;;;;;5031499;28;20230;-53
2022/09/30 05:19:27;;;;;;;21.63;13.47;;;6.30;99.90;;;;;;5031382;28;20237;-54
2022/09/30 05:21:54;;;;;;;19.50;13.47;;;6.30;99.90;;;;;;5031044;28;20257;-59
2022/09/30 05:24:20;;;;;;;18.53;12.83;;;6.30;99.90;;;;;;5031756;28;20206;-62
2022/09/30 05:26:47;;;;;;;19.13;12.20;;;6.30;99.90;;;;;;5030775;28;20211;-60
2022/09/30 05:29:13;;;;;;;18.83;13.53;;;6.30;99.90;;;;;;5031287;28;20685;-61
2022/09/30 05:31:41;;;;;;;19.00;13.30;;;6.30;99.90;;;;;;5030918;28;20218;-62
2022/09/30 05:34:09;;;;;;;23.37;14.87;;;6.30;99.90;;;;;;5031300;28;20221;-60
2022/09/30 05:36:36;;;;;;;24.17;14.93;;;6.30;99.90;;;;;;5030394;28;20210;-60
2022/09/30 05:39:02;;;;;;;22.33;15.20;;;6.40;99.90;;;;;;5031249;28;20230;-60
2022/09/30 05:41:29;;;;;;;26.93;15.13;;;6.40;99.90;;;;;;5031343;28;20202;-60
2022/09/30 05:43:59;;;;;;;21.20;14.20;;;6.40;99.90;;;;;;5033761;28;20214;-61
2022/09/30 05:46:26;;;;;;;22.43;13.87;;;6.40;99.90;;;;;;5035318;28;20218;-58
2022/09/30 05:48:54;;;;;;;20.13;13.57;;;6.40;99.90;;;;;;5034625;28;20771;-59
2022/09/30 05:51:22;;;;;;;22.10;14.63;;;6.40;99.90;;;;;;5035058;28;20207;-58
2022/09/30 05:53:48;;;;;;;25.10;14.93;;;6.40;99.90;;;;;;5034390;28;20214;-55
2022/09/30 05:56:15;;;;;;;24.90;14.03;;;6.50;99.90;;;;;;5034622;28;20584;-53
2022/09/30 05:58:41;;;;;;;26.53;16.03;;;6.50;99.90;;;;;;5034432;28;20296;-57
2022/09/30 06:01:11;;;;;;;23.40;15.90;;;6.60;99.90;;;;;;5034685;28;20210;-58
2022/09/30 06:03:37;;;;;;;24.40;15.80;;;6.60;99.90;;;;;;5034176;28;20202;-60
2022/09/30 06:06:05;;;;;;;25.20;15.33;;;6.70;99.90;;;;;;5034854;28;20301;-60
2022/09/30 06:08:33;;;;;;;21.93;14.40;;;6.70;99.90;;;;;;5034598;28;20227;-60
2022/09/30 06:11:00;;;;;;;23.77;14.73;;;6.70;99.90;;;;;;5034796;28;20233;-60
2022/09/30 06:13:28;;;;;;;23.43;15.43;;;6.80;99.90;;;;;;5034471;28;20221;-50
2022/09/30 06:15:56;;;;;;;22.50;15.33;;;6.80;99.90;;;;;;5033772;28;20209;-59
2022/09/30 06:18:24;;;;;;;24.70;17.23;;;6.80;99.90;;;;;;5034430;28;20240;-60
2022/09/30 06:20:51;;;;;;;27.40;16.10;;;6.90;99.90;;;;;;5034181;28;20202;-61
2022/09/30 06:23:17;;;;;;;23.80;15.67;;;7.00;99.90;;;;;;5034542;28;20210;-62
2022/09/30 06:25:45;;;;;;;22.73;15.80;;;7.10;99.90;;;;;;5033871;28;20206;-58
2022/09/30 06:28:12;;;;;;;24.50;14.37;;;7.10;99.90;;;;;;5034090;28;20233;-60
2022/09/30 06:30:39;;;;;;;23.10;14.67;;;7.20;99.90;;;;;;5033821;28;20210;-59
2022/09/30 06:33:05;;;;;;;23.10;14.37;;;7.20;99.90;;;;;;5034261;28;20206;-59
2022/09/30 06:35:32;;;;;;;20.03;12.80;;;7.30;99.90;;;;;;5033844;28;20595;-60
2022/09/30 06:37:59;;;;;;;21.20;13.37;;;7.40;99.90;;;;;;5033872;28;20226;-63
2022/09/30 06:40:25;;;;;;;19.47;13.07;;;7.50;99.90;;;;;;5033993;28;20236;-65
2022/09/30 06:42:58;;;;;;;17.27;12.43;;;7.70;99.90;;;;;;5033565;28;20285;-64
2022/09/30 06:45:26;;;;;;;19.27;13.03;;;7.80;99.90;;;;;;5033817;28;20214;-59
2022/09/30 06:47:56;;;;;;;17.97;12.67;;;7.90;99.90;;;;;;5033172;28;20280;-62
2022/09/30 06:50:23;;;;;;;15.23;11.70;;;7.90;99.90;;;;;;5033790;28;20669;-62
2022/09/30 06:52:50;;;;;;;15.77;11.57;;;7.90;99.90;;;;;;5033616;28;20261;-61
2022/09/30 06:55:17;;;;;;;16.60;11.47;;;8.00;99.90;;;;;;5029278;28;20217;-61
2022/09/30 06:57:45;;;;;;;18.10;11.97;;;8.00;99.90;;;;;;5031758;28;20230;-62
2022/09/30 07:00:15;;;;;;;15.87;10.63;;;8.00;99.90;;;;;;5033300;28;20211;-62
2022/09/30 07:02:42;;;;;;;14.70;10.60;;;8.10;99.90;;;;;;5032397;28;20233;-61
2022/09/30 07:05:09;;;;;;;17.40;10.60;;;8.10;99.90;;;;;;5032842;28;20219;-61
2022/09/30 07:07:37;;;;;;;16.07;11.30;;;8.20;99.90;;;;;;5032476;28;20236;-62
2022/09/30 07:10:04;;;;;;;17.13;11.23;;;8.30;99.90;;;;;;5032671;28;20206;-62
2022/09/30 07:12:31;;;;;;;16.67;10.93;;;8.40;99.90;;;;;;5033210;28;20267;-62
2022/09/30 07:14:58;;;;;;;14.23;10.87;;;8.40;99.90;;;;;;5032406;28;20208;-61
2022/09/30 07:17:27;;;;;;;17.40;11.77;;;8.40;99.90;;;;;;5032440;28;20229;-62
2022/09/30 07:19:54;;;;;;;14.87;10.73;;;8.40;99.90;;;;;;5032661;28;20250;-62
2022/09/30 07:22:28;;;;;;;14.50;10.80;;;8.40;99.90;;;;;;5032733;28;20256;-62
2022/09/30 07:24:55;;;;;;;17.83;10.60;;;8.50;99.90;;;;;;5032277;28;20198;-60
2022/09/30 07:27:22;;;;;;;16.67;11.63;;;8.50;99.90;;;;;;5032617;28;20232;-59
2022/09/30 07:29:48;;;;;;;14.10;10.77;;;8.50;99.90;;;;;;5033104;28;20201;-59
2022/09/30 07:32:18;;;;;;;16.80;10.77;;;8.50;99.90;;;;;;5032302;28;20260;-60
2022/09/30 07:34:46;;;;;;;15.53;11.10;;;8.60;99.90;;;;;;5032458;28;20205;-60
2022/09/30 07:37:15;;;;;;;18.20;11.63;;;8.60;99.90;;;;;;5031611;28;20286;-59
2022/09/30 07:39:43;;;;;;;14.80;11.30;;;8.60;99.90;;;;;;5032671;28;20229;-58
2022/09/30 07:42:10;;;;;;;15.00;11.23;;;8.70;99.90;;;;;;5032011;28;20292;-59
2022/09/30 07:44:42;;;;;;;16.10;11.10;;;8.80;99.90;;;;;;5032271;28;20221;-58
2022/09/30 07:47:09;;;;;;;14.53;11.33;;;8.90;99.90;;;;;;5031165;28;20240;-59
2022/09/30 07:49:37;;;;;;;14.63;10.67;;;8.90;99.90;;;;;;5032101;28;20202;-60
2022/09/30 07:52:05;;;;;;;17.37;11.10;;;9.00;99.90;;;;;;5032225;28;20214;-59
2022/09/30 07:54:33;;;;;;;15.17;10.60;;;9.10;99.90;;;;;;5031611;28;20241;-59
2022/09/30 07:57:02;;;;;;;14.40;11.20;;;9.20;99.90;;;;;;5031340;28;20284;-59
2022/09/30 07:59:31;;;;;;;18.03;10.17;;;9.30;99.90;;;;;;5031227;28;20738;-58
2022/09/30 08:01:58;;;;;;;18.43;11.53;;;9.30;99.90;;;;;;5031782;28;20210;-55
2022/09/30 08:04:26;;;;;;;16.63;11.30;;;9.40;99.90;;;;;;5031272;28;20218;-60
2022/09/30 08:06:54;;;;;;;15.83;10.73;;;9.50;99.90;;;;;;5031138;28;20632;-59
2022/09/30 08:09:24;;;;;;;16.43;10.07;;;9.60;99.90;;;;;;5031458;28;20210;-58
2022/09/30 08:11:51;;;;;;;13.67;10.07;;;9.70;99.90;;;;;;5031708;28;20264;-64
2022/09/30 08:14:19;;;;;;;12.40;9.40;;;9.80;99.90;;;;;;5031717;28;20202;-58
2022/09/30 08:16:46;;;;;;;16.23;9.93;;;10.00;99.90;;;;;;5030310;28;20681;-62
2022/09/30 08:19:15;;;;;;;12.80;9.20;;;10.10;99.90;;;;;;5032080;28;20284;-62
2022/09/30 08:21:42;;;;;;;12.07;8.73;;;10.20;99.90;;;;;;5031425;28;20210;-60
2022/09/30 08:24:09;;;;;;;12.10;8.57;;;10.30;99.90;;;;;;5031471;28;20224;-60
2022/09/30 08:26:37;;;;;;;12.03;8.93;;;10.40;99.90;;;;;;5030512;28;20214;-61
2022/09/30 08:29:04;;;;;;;14.00;8.50;;;10.40;99.90;;;;;;5035632;28;20616;-63
2022/09/30 08:31:32;;;;;;;13.77;8.77;;;10.40;99.90;;;;;;5035134;28;20260;-63
2022/09/30 08:33:59;;;;;;;11.40;7.90;;;10.50;99.90;;;;;;5032152;28;20246;-61
2022/09/30 08:36:27;;;;;;;9.67;7.77;;;10.60;99.90;;;;;;5031259;28;20279;-61
2022/09/30 08:38:54;;;;;;;10.30;7.67;;;10.70;99.90;;;;;;5030743;28;20722;-60
2022/09/30 08:41:32;;;;;;;14.53;7.40;;;10.80;99.90;;;;;;5031529;28;20214;-61
2022/09/30 08:44:13;;;;;;;14.37;7.23;;;10.90;99.90;;;;;;5030432;28;20206;-61
2022/09/30 08:46:46;;;;;;;9.47;7.33;;;11.00;99.90;;;;;;5030776;28;20209;-62
2022/09/30 08:49:26;;;;;;;13.13;7.47;;;11.10;99.90;;;;;;5030686;28;20669;-62
2022/09/30 08:51:54;;;;;;;7.97;6.90;;;11.20;94.70;;;;;;5031450;28;20210;-59
2022/09/30 08:54:24;;;;;;;12.03;7.80;;;11.30;99.90;;;;;;5030307;28;20214;-59
2022/09/30 08:56:51;;;;;;;10.13;7.57;;;11.30;94.60;;;;;;5031019;28;20230;-58
2022/09/30 08:59:29;;;;;;;12.53;7.37;;;11.40;93.10;;;;;;5031027;28;20237;-61
2022/09/30 09:02:02;;;;;;;13.17;8.10;;;11.60;95.30;;;;;;5031109;28;20201;-60
2022/09/30 09:04:28;;;;;;;12.60;7.87;;;11.70;93.60;;;;;;5030917;28;20209;-58
2022/09/30 09:07:04;;;;;;;10.37;6.87;;;11.80;82.10;;;;;;5021007;28;20235;-62
2022/09/30 09:09:43;;;;;;;9.37;7.57;;;11.90;80.40;;;;;;5031400;28;20673;-61
2022/09/30 09:12:22;;;;;;;10.97;6.73;;;12.00;63.50;;;;;;5030821;28;20696;-60
2022/09/30 09:15:08;;;;;;;9.90;7.07;;;12.10;65.90;;;;;;5031563;28;20285;-60
2022/09/30 09:17:50;;;;;;;16.20;8.43;;;12.20;64.50;;;;;;5031828;28;20237;-59
2022/09/30 09:20:19;;;;;;;12.80;7.27;;;12.30;44.10;;;;;;5034864;28;20636;-59
2022/09/30 09:22:47;;;;;;;11.40;7.87;;;12.30;33.80;;;;;;5034629;28;20208;-59
2022/09/30 09:25:16;;;;;;;10.47;7.30;;;12.30;29.70;;;;;;5034921;28;20297;-62
2022/09/30 09:27:50;;;;;;;11.00;6.93;;;12.40;30.70;;;;;;5034359;28;20233;-61
2022/09/30 09:30:20;;;;;;;10.67;6.90;;;12.50;24.50;;;;;;5035154;28;20342;-60
2022/09/30 09:32:51;;;;;;;12.67;7.07;;;12.60;23.90;;;;;;5034564;28;20209;-61
2022/09/30 09:35:33;;;;;;;8.77;6.10;;;12.70;13.40;;;;;;5034611;28;20232;-63
2022/09/30 09:40:59;;;;;;;10.03;6.30;;;12.80;8.20;;;;;;5035044;28;20332;-58
2022/09/30 09:43:37;;;;;;;12.87;6.37;;;12.90;12.10;;;;;;5034886;28;20194;-61
2022/09/30 09:46:15;;;;;;;14.83;6.50;;;13.00;12.50;;;;;;5033655;28;20604;-61
2022/09/30 09:48:43;;;;;;;13.00;6.23;;;13.10;5.50;;;;;;5034615;28;20279;-62
2022/09/30 09:51:16;;;;;;;11.53;6.93;;;13.20;8.80;;;;;;5033390;28;20214;-60
2022/09/30 09:53:48;;;;;;;12.63;5.57;;;13.30;2.00;;;;;;5034824;28;20210;-64
2022/09/30 09:56:18;;;;;;;10.33;6.03;;;13.40;1.90;;;;;;5033849;28;20209;-63
2022/09/30 09:59:04;;;;;;;10.97;6.07;;;13.50;1.00;;;;;;5034371;28;20242;-57
2022/09/30 10:02:00;;;;;;;10.23;6.13;;;13.60;1.00;;;;;;5033861;28;20672;-62
2022/09/30 10:04:29;;;;;;;10.70;6.40;;;13.70;1.00;;;;;;5034526;28;20260;-62
2022/09/30 10:06:58;;;;;;;9.83;5.80;;;13.80;1.00;;;;;;5033317;28;20276;-62
2022/09/30 10:09:31;;;;;;;8.70;6.20;;;13.90;1.00;;;;;;5034161;28;20243;-62
2022/09/30 10:12:29;;;;;;;11.77;6.13;;;14.00;1.00;;;;;;5033939;28;20279;-57
2022/09/30 10:15:00;;;;;;;11.17;6.60;;;14.00;1.00;;;;;;5033889;28;20214;-60
2022/09/30 10:17:30;;;;;;;9.03;6.73;;;13.90;1.00;;;;;;5033198;28;20234;-61
2022/09/30 10:20:07;;;;;;;10.33;5.80;;;14.00;1.00;;;;;;5034154;28;20272;-62
2022/09/30 10:22:36;;;;;;;12.43;6.30;;;14.20;1.00;;;;;;5034027;28;20202;-60
2022/09/30 10:25:20;;;;;;;6.93;5.73;;;14.40;1.00;;;;;;5033504;28;20202;-60
2022/09/30 10:27:56;;;;;;;11.07;6.80;;;14.50;1.00;;;;;;5033399;28;20226;-59
2022/09/30 10:30:43;;;;;;;12.07;6.50;;;14.40;1.00;;;;;;5033464;28;20190;-60
2022/09/30 10:33:24;;;;;;;11.37;7.20;;;14.60;1.00;;;;;;5034093;28;20555;-59
2022/09/30 10:35:57;;;;;;;11.83;7.17;;;14.40;1.00;;;;;;5033789;28;20673;-60
2022/09/30 10:38:28;;;;;;;8.90;6.67;;;14.50;1.00;;;;;;5034139;28;20276;-60
2022/09/30 10:40:55;;;;;;;9.10;6.73;;;14.60;99.90;;;;;;5034359;28;20214;-57
2022/09/30 10:43:28;;;;;;;7.73;6.37;;;14.70;99.90;;;;;;5033701;28;20206;-62
2022/09/30 10:45:55;;;;;;;10.17;6.87;;;14.70;6.50;;;;;;5013147;28;20219;-61
2022/09/30 10:48:25;;;;;;;11.80;7.43;;;14.60;99.90;;;;;;5033210;28;20234;-62
2022/09/30 10:50:52;;;;;;;16.47;6.73;;;14.50;99.90;;;;;;5033215;28;20564;-62
2022/09/30 10:53:23;;;;;;;10.50;7.47;;;14.40;99.90;;;;;;5034111;28;20215;-60
2022/09/30 10:55:50;;;;;;;11.37;6.80;;;14.30;1.00;;;;;;5033291;28;20205;-60
2022/09/30 10:58:28;;;;;;;9.17;6.60;;;14.10;1.00;;;;;;5032946;28;20238;-63
2022/09/30 11:01:00;;;;;;;7.97;5.43;;;13.90;99.90;;;;;;5033506;28;20222;-63
2022/09/30 11:03:34;;;;;;;8.60;5.73;;;14.00;99.90;;;;;;5032984;28;20296;-62
2022/09/30 11:06:01;;;;;;;8.37;5.10;;;14.20;99.90;;;;;;5033435;28;20900;-63
2022/09/30 11:08:35;;;;;;;7.87;4.77;;;14.50;85.30;;;;;;5032581;28;20222;-59
2022/09/30 11:11:09;;;;;;;7.30;4.47;;;14.70;99.90;;;;;;5032246;28;20209;-60
2022/09/30 11:13:40;;;;;;;7.43;4.60;;;15.00;99.90;;;;;;5032483;28;20225;-60
2022/09/30 11:16:16;;;;;;;8.93;4.03;;;15.20;99.90;;;;;;5032438;28;20252;-58
2022/09/30 11:18:48;;;;;;;7.47;4.50;;;15.40;1.00;;;;;;5032760;28;20311;-56
2022/09/30 11:21:20;;;;;;;6.10;4.20;;;15.60;1.00;;;;;;5033073;28;20886;-63
2022/09/30 11:23:50;;;;;;;7.53;3.87;;;15.70;99.90;;;;;;5032657;28;20258;-63
2022/09/30 11:26:27;;;;;;;6.43;4.10;;;15.90;99.90;;;;;;5032022;28;20206;-62
2022/09/30 11:29:08;;;;;;;8.90;3.67;;;15.90;99.90;;;;;;5033015;28;20226;-62
2022/09/30 11:31:37;;;;;;;6.43;4.00;;;16.00;1.00;;;;;;5032710;28;20202;-61
2022/09/30 11:34:26;;;;;;;8.50;4.03;;;15.70;1.00;;;;;;5033709;28;20210;-65
2022/09/30 11:37:01;;;;;;;5.93;4.30;;;15.60;57.30;;;;;;5032220;28;20230;-62
2022/09/30 11:39:52;;;;;;;8.83;4.37;;;15.40;1.00;;;;;;5032584;28;20698;-62
2022/09/30 11:42:27;;;;;;;6.70;4.20;;;15.30;1.00;;;;;;5031651;28;20210;-62
2022/09/30 11:45:00;;;;;;;6.23;3.80;;;15.40;1.00;;;;;;5032324;28;20839;-61
2022/09/30 11:47:43;;;;;;;3.97;3.00;;;15.50;1.00;;;;;;5034004;28;20380;-62
2022/09/30 11:50:29;;;;;;;7.43;3.67;;;15.60;1.00;;;;;;5035707;28;20210;-63
2022/09/30 11:53:05;;;;;;;6.60;3.60;;;15.20;1.00;;;;;;5032298;28;20621;-60
2022/09/30 11:55:49;;;;;;;4.80;3.20;;;15.20;1.00;;;;;;5031819;28;20205;-63
2022/09/30 11:58:19;;;;;;;4.13;2.93;;;15.40;1.00;;;;;;5030322;28;20770;-63
2022/09/30 12:00:51;;;;;;;6.03;3.40;;;15.30;1.00;;;;;;5032229;28;20280;-61
2022/09/30 12:03:22;;;;;;;6.97;3.20;;;15.30;1.00;;;;;;5031431;28;20994;-60
2022/09/30 12:05:54;;;;;;;5.30;2.73;;;15.30;1.00;;;;;;5031670;28;20739;-61
2022/09/30 12:08:27;;;;;;;5.03;3.13;;;15.20;1.00;;;;;;5031803;28;20260;-61
2022/09/30 12:10:58;;;;;;;5.00;2.60;;;15.20;1.00;;;;;;5032046;28;20349;-60
2022/09/30 12:13:27;;;;;;;4.03;3.17;;;15.40;1.00;;;;;;5031924;28;20210;-59
2022/09/30 12:15:57;;;;;;;4.63;2.67;;;15.60;1.00;;;;;;5030939;28;20280;-57
2022/09/30 12:18:31;;;;;;;7.47;2.63;;;15.70;1.00;;;;;;5031813;28;20286;-59
2022/09/30 12:21:02;;;;;;;6.43;2.77;;;15.80;1.00;;;;;;5031344;28;20226;-59
2022/09/30 12:23:33;;;;;;;4.23;2.60;;;15.90;1.00;;;;;;5031863;28;20743;-59
2022/09/30 12:26:01;;;;;;;6.03;3.30;;;16.10;99.90;;;;;;5030692;28;20376;-58
2022/09/30 12:31:55;;;;;;;3.67;2.83;;;16.20;99.90;;;;;;5031085;28;20216;-58
2022/09/30 12:34:35;;;;;;;5.33;2.87;;;15.90;99.90;;;;;;5031535;28;20206;-58
2022/09/30 12:37:18;;;;;;;4.13;2.80;;;16.00;99.90;;;;;;5030487;28;20230;-59
2022/09/30 12:40:06;;;;;;;5.93;3.27;;;16.00;99.90;;;;;;5011994;28;20226;-58
2022/09/30 12:42:51;;;;;;;5.73;3.10;;;15.90;99.90;;;;;;5011454;28;20210;-58
2022/09/30 12:45:30;;;;;;;5.83;3.20;;;15.90;99.90;;;;;;5011290;28;20225;-59
2022/09/30 12:48:00;;;;;;;4.83;2.83;;;15.90;99.90;;;;;;5017863;28;20944;-58
2022/09/30 12:50:28;;;;;;;6.97;3.77;;;15.80;99.90;;;;;;5031647;28;20210;-59
2022/09/30 12:52:58;;;;;;;5.80;2.70;;;15.70;99.90;;;;;;5031164;28;20210;-59
2022/09/30 12:55:29;;;;;;;4.90;3.20;;;15.70;99.90;;;;;;5030982;28;20202;-61
2022/09/30 12:57:59;;;;;;;5.67;3.30;;;15.90;99.90;;;;;;5030361;28;20727;-59
2022/09/30 13:00:29;;;;;;;7.53;2.73;;;16.00;99.90;;;;;;5030801;28;20233;-60
2022/09/30 13:03:00;;;;;;;3.73;2.80;;;15.80;99.90;;;;;;5031456;28;20202;-60
2022/09/30 13:06:05;;;;;;;6.50;3.40;;;15.90;99.90;;;;;;5030529;28;20252;-62
2022/09/30 13:08:49;;;;;;;6.83;3.10;;;16.20;99.90;;;;;;5030904;28;20723;-61
2022/09/30 13:11:36;;;;;;;4.73;3.17;;;16.10;99.90;;;;;;5030658;28;20236;-60
2022/09/30 13:14:14;;;;;;;5.27;3.10;;;16.40;99.90;;;;;;5031118;28;20210;-61